createdAt,value
2023-05-20T00:01:49.710Z,100329.85
2023-05-20T00:04:16.297Z,100326.22
2023-05-20T00:06:42.925Z,100325.20
2023-05-20T00:09:09.488Z,100325.39
2023-05-20T00:11:36.064Z,100327.67
2023-05-20T00:14:02.754Z,100329.60
2023-05-20T00:16:29.717Z,100331.67
2023-05-20T00:18:56.767Z,100330.98
2023-05-20T00:21:23.401Z,100332.89
2023-05-20T00:23:50.529Z,100330.81
2023-05-20T00:26:17.115Z,100327.19
2023-05-20T00:28:44.855Z,100328.23
2023-05-20T00:31:11.678Z,100328.77
2023-05-20T00:33:38.340Z,100327.38
2023-05-20T00:36:05.425Z,100333.45
2023-05-20T00:38:33.141Z,100332.59
2023-05-20T00:40:59.823Z,100330.88
2023-05-20T00:43:26.697Z,100328.10
2023-05-20T00:45:53.974Z,100329.86
2023-05-20T00:48:21.171Z,100329.52
2023-05-20T00:50:48.983Z,100326.23
2023-05-20T00:53:16.912Z,100325.02
2023-05-20T00:55:43.841Z,100324.67
2023-05-20T00:58:10.826Z,100323.48
2023-05-20T01:00:38.434Z,100323.84
2023-05-20T01:03:05.319Z,100323.16
2023-05-20T01:05:34.312Z,100320.55
2023-05-20T01:08:02.221Z,100318.98
2023-05-20T01:10:29.641Z,100321.94
2023-05-20T01:13:07.871Z,100321.77
2023-05-20T01:15:40.777Z,100321.09
2023-05-20T01:18:08.308Z,100322.65
2023-05-20T01:20:38.822Z,100315.04
2023-05-20T01:23:05.549Z,100314.34
2023-05-20T01:25:32.761Z,100315.05
2023-05-20T01:27:59.533Z,100319.21
2023-05-20T01:30:33.913Z,100321.47
2023-05-20T01:33:03.214Z,100317.66
2023-05-20T01:35:30.409Z,100318.20
2023-05-20T01:37:57.424Z,100313.34
2023-05-20T01:40:24.064Z,100311.44
2023-05-20T01:42:52.536Z,100312.30
2023-05-20T01:45:19.220Z,100308.16
2023-05-20T01:47:45.957Z,100308.50
2023-05-20T01:50:13.098Z,100307.13
2023-05-20T01:52:39.936Z,100309.04
2023-05-20T01:55:06.857Z,100306.27
2023-05-20T01:57:34.314Z,100307.48
2023-05-20T02:00:01.006Z,100309.73
2023-05-20T02:02:27.881Z,100305.05
2023-05-20T02:04:54.800Z,100309.21
2023-05-20T02:07:21.469Z,100311.64
2023-05-20T02:09:48.034Z,100313.90
2023-05-20T02:12:17.519Z,100318.41
2023-05-20T02:14:45.216Z,100318.41
2023-05-20T02:17:13.924Z,100316.68
2023-05-20T02:19:42.328Z,100315.98
2023-05-20T02:22:08.938Z,100317.89
2023-05-20T02:24:36.078Z,100318.23
2023-05-20T02:27:04.152Z,100318.92
2023-05-20T02:29:31.086Z,100321.02
2023-05-20T02:31:57.864Z,100324.66
2023-05-20T02:34:25.633Z,100327.62
2023-05-20T02:36:52.427Z,100328.83
2023-05-20T02:39:19.372Z,100331.77
2023-05-20T02:41:45.931Z,100333.85
2023-05-20T02:44:13.120Z,100335.59
2023-05-20T02:46:40.194Z,100338.69
2023-05-20T02:49:06.709Z,100340.09
2023-05-20T02:51:33.411Z,100341.13
2023-05-20T02:53:59.963Z,100343.38
2023-05-20T02:56:26.486Z,100343.54
2023-05-20T02:58:53.017Z,100344.91
2023-05-20T03:01:19.618Z,100344.73
2023-05-20T03:03:46.161Z,100347.34
2023-05-20T03:06:14.627Z,100347.00
2023-05-20T03:08:44.214Z,100349.08
2023-05-20T03:11:11.281Z,100348.55
2023-05-20T03:13:37.914Z,100350.11
2023-05-20T03:16:04.654Z,100353.04
2023-05-20T03:18:32.697Z,100352.02
2023-05-20T03:20:59.889Z,100349.42
2023-05-20T03:23:26.639Z,100350.63
2023-05-20T03:25:53.211Z,100351.32
2023-05-20T03:28:19.781Z,100352.54
2023-05-20T03:30:47.079Z,100356.52
2023-05-20T03:33:15.524Z,100355.47
2023-05-20T03:35:42.173Z,100355.12
2023-05-20T03:38:08.738Z,100355.13
2023-05-20T03:40:35.684Z,100354.23
2023-05-20T03:43:03.607Z,100353.89
2023-05-20T03:45:30.276Z,100358.21
2023-05-20T03:48:03.607Z,100356.45
2023-05-20T03:50:32.356Z,100357.98
2023-05-20T03:53:00.235Z,100360.02
2023-05-20T03:55:27.347Z,100358.07
2023-05-20T03:57:54.745Z,100358.90
2023-05-20T04:00:22.782Z,100356.77
2023-05-20T04:02:49.451Z,100353.23
2023-05-20T04:05:17.875Z,100357.34
2023-05-20T04:07:44.548Z,100362.86
2023-05-20T04:10:12.106Z,100361.77
2023-05-20T04:12:38.802Z,100363.95
2023-05-20T04:15:06.255Z,100361.67
2023-05-20T04:17:39.966Z,100363.36
2023-05-20T04:20:07.673Z,100366.80
2023-05-20T04:22:35.520Z,100371.62
2023-05-20T04:25:04.213Z,100369.09
2023-05-20T04:27:33.077Z,100368.48
2023-05-20T04:30:01.964Z,100367.71
2023-05-20T04:32:30.363Z,100367.29
2023-05-20T04:34:59.246Z,100362.69
2023-05-20T04:37:25.804Z,100366.11
2023-05-20T04:39:52.323Z,100372.27
2023-05-20T04:42:19.682Z,100376.86
2023-05-20T04:44:47.418Z,100377.81
2023-05-20T04:47:14.815Z,100379.65
2023-05-20T04:49:41.780Z,100379.09
2023-05-20T04:52:09.295Z,100379.89
2023-05-20T04:54:36.173Z,100385.25
2023-05-20T04:57:03.649Z,100381.05
2023-05-20T04:59:30.484Z,100379.63
2023-05-20T05:01:57.284Z,100378.34
2023-05-20T05:04:23.811Z,100380.98
2023-05-20T05:06:50.693Z,100382.31
2023-05-20T05:09:17.667Z,100382.23
2023-05-20T05:11:44.691Z,100381.93
2023-05-20T05:14:12.236Z,100382.59
2023-05-20T05:16:39.345Z,100387.73
2023-05-20T05:19:06.804Z,100388.70
2023-05-20T05:21:35.854Z,100391.01
2023-05-20T05:24:03.511Z,100391.34
2023-05-20T05:26:30.327Z,100394.89
2023-05-20T05:28:57.106Z,100393.95
2023-05-20T05:31:23.650Z,100397.61
2023-05-20T05:33:50.316Z,100401.88
2023-05-20T05:36:17.267Z,100402.76
2023-05-20T05:38:45.649Z,100404.14
2023-05-20T05:41:12.219Z,100401.64
2023-05-20T05:43:39.813Z,100401.04
2023-05-20T05:46:06.846Z,100401.23
2023-05-20T05:48:33.524Z,100402.92
2023-05-20T05:51:00.183Z,100401.89
2023-05-20T05:53:27.187Z,100402.44
2023-05-20T05:55:53.818Z,100403.71
2023-05-20T05:58:21.180Z,100402.51
2023-05-20T06:00:50.855Z,100404.69
2023-05-20T06:03:18.021Z,100397.73
2023-05-20T06:05:46.717Z,100395.10
2023-05-20T06:08:13.587Z,100394.71
2023-05-20T06:10:40.358Z,100391.47
2023-05-20T06:13:06.982Z,100392.31
2023-05-20T06:15:33.925Z,100390.87
2023-05-20T06:18:02.202Z,100386.67
2023-05-20T06:20:30.651Z,100385.95
2023-05-20T06:22:58.128Z,100389.11
2023-05-20T06:25:30.045Z,100391.31
2023-05-20T06:27:56.998Z,100392.36
2023-05-20T06:30:24.064Z,100393.88
2023-05-20T06:32:51.485Z,100388.89
2023-05-20T06:35:18.056Z,100384.80
2023-05-20T06:37:44.802Z,100382.36
2023-05-20T06:40:11.907Z,100389.46
2023-05-20T06:42:39.463Z,100385.17
2023-05-20T06:45:06.512Z,100386.84
2023-05-20T06:47:49.401Z,100388.58
2023-05-20T06:50:16.147Z,100386.94
2023-05-20T06:52:43.054Z,100381.89
2023-05-20T06:55:10.952Z,100378.71
2023-05-20T06:57:37.962Z,100378.09
2023-05-20T07:00:05.367Z,100380.20
2023-05-20T07:02:34.559Z,100376.55
2023-05-20T07:05:01.098Z,100381.98
2023-05-20T07:07:27.769Z,100382.61
2023-05-20T07:09:54.766Z,100380.31
2023-05-20T07:12:21.364Z,100380.52
2023-05-20T07:14:48.063Z,100382.82
2023-05-20T07:17:15.898Z,100381.63
2023-05-20T07:19:43.202Z,100382.29
2023-05-20T07:22:10.914Z,100382.48
2023-05-20T07:24:55.606Z,100377.61
2023-05-20T07:27:22.829Z,100378.04
2023-05-20T07:29:49.622Z,100377.84
2023-05-20T07:32:16.290Z,100379.65
2023-05-20T07:34:47.361Z,100375.63
2023-05-20T07:37:18.588Z,100376.21
2023-05-20T07:39:45.400Z,100381.38
2023-05-20T07:42:12.040Z,100383.14
2023-05-20T07:44:43.429Z,100386.42
2023-05-20T07:47:12.785Z,100390.08
2023-05-20T07:49:41.272Z,100381.00
2023-05-20T07:52:07.871Z,100376.98
2023-05-20T07:54:34.629Z,100378.02
2023-05-20T07:57:01.568Z,100377.77
2023-05-20T07:59:29.361Z,100376.69
2023-05-20T08:01:56.283Z,100378.78
2023-05-20T08:04:24.103Z,100374.88
2023-05-20T08:06:52.591Z,100377.30
2023-05-20T08:09:31.475Z,100376.54
2023-05-20T08:11:58.591Z,100371.23
2023-05-20T08:14:25.230Z,100368.31
2023-05-20T08:16:54.959Z,100368.60
2023-05-20T08:19:22.028Z,100369.92
2023-05-20T08:21:49.174Z,100371.41
2023-05-20T08:24:16.422Z,100370.50
2023-05-20T08:26:43.340Z,100371.92
2023-05-20T08:29:09.935Z,100368.58
2023-05-20T08:31:37.125Z,100366.42
2023-05-20T08:34:03.937Z,100362.98
2023-05-20T08:36:30.922Z,100365.19
2023-05-20T08:38:57.587Z,100369.94
2023-05-20T08:41:24.298Z,100365.17
2023-05-20T08:43:51.239Z,100353.98
2023-05-20T08:46:19.430Z,100358.09
2023-05-20T08:48:46.307Z,100349.30
2023-05-20T08:51:13.217Z,100353.40
2023-05-20T08:53:39.894Z,100355.21
2023-05-20T08:56:07.135Z,100355.63
2023-05-20T08:58:33.878Z,100353.55
2023-05-20T09:01:00.464Z,100355.73
2023-05-20T09:03:27.449Z,100358.65
2023-05-20T09:06:02.453Z,100352.23
2023-05-20T09:08:30.308Z,100353.88
2023-05-20T09:11:00.438Z,100358.98
2023-05-20T09:13:28.370Z,100362.63
2023-05-20T09:15:57.585Z,100361.41
2023-05-20T09:18:26.104Z,100359.02
2023-05-20T09:20:52.679Z,100354.00
2023-05-20T09:23:21.346Z,100355.09
2023-05-20T09:25:49.257Z,100351.79
2023-05-20T09:28:17.207Z,100346.23
2023-05-20T09:30:45.863Z,100345.79
2023-05-20T09:33:13.711Z,100347.64
2023-05-20T09:35:42.703Z,100349.79
2023-05-20T09:38:09.687Z,100357.61
2023-05-20T09:40:39.757Z,100357.54
2023-05-20T09:43:11.852Z,100354.65
2023-05-20T09:45:39.115Z,100349.11
2023-05-20T09:48:05.895Z,100346.88
2023-05-20T09:50:33.217Z,100342.23
2023-05-20T09:53:02.289Z,100343.11
2023-05-20T09:55:29.539Z,100338.34
2023-05-20T09:57:56.111Z,100341.64
2023-05-20T10:00:22.680Z,100346.84
2023-05-20T10:02:52.699Z,100341.12
2023-05-20T10:05:32.623Z,100338.73
2023-05-20T10:08:37.577Z,100344.98
2023-05-20T10:11:21.279Z,100336.59
2023-05-20T10:14:09.725Z,100342.43
2023-05-20T10:16:53.959Z,100333.33
2023-05-20T10:19:29.256Z,100328.45
2023-05-20T10:22:10.091Z,100334.91
2023-05-20T10:24:40.249Z,100339.27
2023-05-20T10:27:14.967Z,100338.02
2023-05-20T10:29:46.280Z,100330.70
2023-05-20T10:32:26.098Z,100333.80
2023-05-20T10:34:52.881Z,100333.00
2023-05-20T10:37:32.961Z,100338.77
2023-05-20T10:40:05.350Z,100341.63
2023-05-20T10:42:32.897Z,100343.42
2023-05-20T10:44:59.965Z,100338.22
2023-05-20T10:47:27.406Z,100338.33
2023-05-20T10:49:54.123Z,100340.68
2023-05-20T10:52:20.916Z,100340.61
2023-05-20T10:54:58.386Z,100338.27
2023-05-20T10:57:27.092Z,100331.39
2023-05-20T10:59:53.937Z,100331.15
2023-05-20T11:02:25.927Z,100330.17
2023-05-20T11:04:52.796Z,100332.17
2023-05-20T11:07:29.802Z,100335.91
2023-05-20T11:09:59.800Z,100336.08
2023-05-20T11:12:27.360Z,100335.58
2023-05-20T11:14:53.998Z,100334.31
2023-05-20T11:17:21.040Z,100334.90
2023-05-20T11:19:47.704Z,100333.54
2023-05-20T11:22:14.239Z,100330.67
2023-05-20T11:24:40.913Z,100331.52
2023-05-20T11:27:10.467Z,100329.76
2023-05-20T11:29:38.009Z,100326.91
2023-05-20T11:32:04.980Z,100329.76
2023-05-20T11:34:35.742Z,100325.04
2023-05-20T11:37:02.506Z,100323.15
2023-05-20T11:39:29.873Z,100323.44
2023-05-20T11:41:58.440Z,100317.17
2023-05-20T11:44:25.556Z,100325.59
2023-05-20T11:46:52.055Z,100326.17
2023-05-20T11:49:18.566Z,100320.88
2023-05-20T11:51:45.258Z,100322.77
2023-05-20T11:54:12.113Z,100315.15
2023-05-20T11:56:40.769Z,100312.00
2023-05-20T11:59:09.011Z,100314.81
2023-05-20T12:01:42.843Z,100312.59
2023-05-20T12:04:09.775Z,100308.73
2023-05-20T12:06:45.493Z,100308.89
2023-05-20T12:09:13.476Z,100305.07
2023-05-20T12:11:40.787Z,100305.31
2023-05-20T12:14:08.346Z,100305.66
2023-05-20T12:16:35.937Z,100306.39
2023-05-20T12:19:02.879Z,100302.65
2023-05-20T12:21:30.847Z,100294.17
2023-05-20T12:24:00.530Z,100297.30
2023-05-20T12:26:27.997Z,100297.98
2023-05-20T12:28:56.109Z,100286.13
2023-05-20T12:31:22.785Z,100299.09
2023-05-20T12:33:51.783Z,100293.02
2023-05-20T12:36:20.072Z,100290.45
2023-05-20T12:38:50.528Z,100290.98
2023-05-20T12:41:17.163Z,100289.56
2023-05-20T12:43:43.899Z,100289.13
2023-05-20T12:46:11.068Z,100288.94
2023-05-20T12:48:37.999Z,100284.08
2023-05-20T12:51:05.363Z,100285.70
2023-05-20T12:53:32.229Z,100278.09
2023-05-20T12:55:59.018Z,100281.64
2023-05-20T12:58:26.088Z,100277.77
2023-05-20T13:00:58.709Z,100278.88
2023-05-20T13:03:25.673Z,100279.36
2023-05-20T13:05:53.651Z,100274.33
2023-05-20T13:08:22.021Z,100272.55
2023-05-20T13:10:48.804Z,100269.58
2023-05-20T13:13:20.869Z,100269.65
2023-05-20T13:15:49.317Z,100264.55
2023-05-20T13:18:18.184Z,100261.99
2023-05-20T13:20:45.531Z,100259.06
2023-05-20T13:23:12.968Z,100255.23
2023-05-20T13:25:39.934Z,100256.42
2023-05-20T13:28:08.472Z,100252.91
2023-05-20T13:30:36.092Z,100259.23
2023-05-20T13:33:03.584Z,100258.18
2023-05-20T13:35:30.619Z,100261.05
2023-05-20T13:37:57.127Z,100261.56
2023-05-20T13:40:24.500Z,100255.53
2023-05-20T13:42:51.167Z,100252.63
2023-05-20T13:45:18.150Z,100254.04
2023-05-20T13:47:44.921Z,100256.53
2023-05-20T13:50:11.642Z,100254.30
2023-05-20T13:52:38.812Z,100259.11
2023-05-20T13:55:06.046Z,100257.59
2023-05-20T13:57:33.180Z,100259.57
2023-05-20T14:00:02.307Z,100256.81
2023-05-20T14:02:37.472Z,100254.80
2023-05-20T14:05:08.213Z,100252.92
2023-05-20T14:07:35.367Z,100249.40
2023-05-20T14:10:02.338Z,100253.65
2023-05-20T14:12:29.704Z,100250.90
2023-05-20T14:14:57.347Z,100254.66
2023-05-20T14:17:25.344Z,100251.04
2023-05-20T14:19:51.992Z,100251.76
2023-05-20T14:22:20.044Z,100252.22
2023-05-20T14:24:46.995Z,100247.61
2023-05-20T14:27:14.794Z,100242.82
2023-05-20T14:29:41.458Z,100241.73
2023-05-20T14:32:08.560Z,100240.44
2023-05-20T14:34:35.427Z,100242.42
2023-05-20T14:37:07.331Z,100241.69
2023-05-20T14:39:34.287Z,100238.41
2023-05-20T14:42:02.541Z,100237.67
2023-05-20T14:44:29.498Z,100232.84
2023-05-20T14:46:56.154Z,100228.05
2023-05-20T14:49:23.024Z,100229.84
2023-05-20T14:51:49.664Z,100223.14
2023-05-20T14:54:18.373Z,100222.39
2023-05-20T14:56:44.955Z,100222.16
2023-05-20T14:59:11.597Z,100218.94
2023-05-20T15:01:38.157Z,100216.17
2023-05-20T15:04:04.929Z,100213.52
2023-05-20T15:06:32.961Z,100202.77
2023-05-20T15:08:59.618Z,100206.29
2023-05-20T15:11:26.184Z,100205.23
2023-05-20T15:13:52.884Z,100209.30
2023-05-20T15:16:19.559Z,100207.73
2023-05-20T15:18:46.152Z,100208.36
2023-05-20T15:21:12.684Z,100205.06
2023-05-20T15:23:39.152Z,100207.98
2023-05-20T15:26:05.737Z,100205.98
2023-05-20T15:28:33.064Z,100206.43
2023-05-20T15:30:59.561Z,100203.93
2023-05-20T15:33:26.156Z,100206.71
2023-05-20T15:35:52.815Z,100205.42
2023-05-20T15:38:19.451Z,100199.52
2023-05-20T15:40:46.769Z,100202.34
2023-05-20T15:43:13.363Z,100201.75
2023-05-20T15:45:39.924Z,100201.71
2023-05-20T15:48:07.609Z,100199.71
2023-05-20T15:50:34.989Z,100199.16
2023-05-20T15:53:01.997Z,100199.31
2023-05-20T15:55:28.875Z,100196.23
2023-05-20T15:57:55.404Z,100193.94
2023-05-20T16:00:22.165Z,100196.29
2023-05-20T16:02:48.877Z,100200.14
2023-05-20T16:05:15.488Z,100200.17
2023-05-20T16:07:42.330Z,100205.60
2023-05-20T16:10:09.644Z,100204.58
2023-05-20T16:12:36.535Z,100206.94
2023-05-20T16:15:03.458Z,100203.27
2023-05-20T16:17:30.137Z,100201.97
2023-05-20T16:19:56.751Z,100201.57
2023-05-20T16:22:23.237Z,100197.30
2023-05-20T16:24:49.768Z,100197.76
2023-05-20T16:27:16.477Z,100199.44
2023-05-20T16:29:44.615Z,100198.16
2023-05-20T16:32:11.154Z,100196.51
2023-05-20T16:34:37.730Z,100197.95
2023-05-20T16:37:04.294Z,100202.23
2023-05-20T16:39:30.772Z,100204.23
2023-05-20T16:41:57.342Z,100209.05
2023-05-20T16:44:23.913Z,100207.59
2023-05-20T16:46:52.660Z,100203.67
2023-05-20T16:49:20.810Z,100206.42
2023-05-20T16:51:47.450Z,100205.46
2023-05-20T16:54:13.959Z,100206.94
2023-05-20T16:56:40.595Z,100208.94
2023-05-20T16:59:07.141Z,100210.91
2023-05-20T17:01:33.871Z,100205.96
2023-05-20T17:04:00.734Z,100212.52
2023-05-20T17:06:27.274Z,100209.67
2023-05-20T17:08:53.790Z,100211.35
2023-05-20T17:11:20.866Z,100213.70
2023-05-20T17:13:47.365Z,100214.85
2023-05-20T17:16:14.167Z,100216.02
2023-05-20T17:18:41.186Z,100213.52
2023-05-20T17:21:09.477Z,100216.27
2023-05-20T17:23:35.980Z,100216.59
2023-05-20T17:26:02.642Z,100218.45
2023-05-20T17:28:29.316Z,100217.67
2023-05-20T17:30:56.004Z,100219.21
2023-05-20T17:33:23.650Z,100216.91
2023-05-20T17:35:50.350Z,100214.21
2023-05-20T17:38:16.915Z,100221.14
2023-05-20T17:40:43.479Z,100223.17
2023-05-20T17:43:10.084Z,100223.06
2023-05-20T17:45:36.782Z,100219.69
2023-05-20T17:48:07.769Z,100220.84
2023-05-20T17:50:35.643Z,100217.27
2023-05-20T17:53:02.421Z,100223.67
2023-05-20T17:55:29.521Z,100223.10
2023-05-20T17:57:57.281Z,100225.10
2023-05-20T18:00:24.569Z,100228.32
2023-05-20T18:02:55.480Z,100229.45
2023-05-20T18:05:22.405Z,100227.98
2023-05-20T18:07:48.920Z,100226.00
2023-05-20T18:10:15.713Z,100224.52
2023-05-20T18:12:42.425Z,100230.34
2023-05-20T18:15:09.265Z,100231.43
2023-05-20T18:17:36.346Z,100235.86
2023-05-20T18:20:05.240Z,100243.40
2023-05-20T18:22:31.931Z,100244.16
2023-05-20T18:24:58.453Z,100245.98
2023-05-20T18:27:24.934Z,100250.89
2023-05-20T18:29:51.540Z,100253.91
2023-05-20T18:32:18.136Z,100255.00
2023-05-20T18:34:44.863Z,100255.58
2023-05-20T18:37:11.356Z,100257.01
2023-05-20T18:39:38.357Z,100259.80
2023-05-20T18:42:05.391Z,100261.93
2023-05-20T18:44:32.310Z,100258.86
2023-05-20T18:46:58.918Z,100260.82
2023-05-20T18:49:25.883Z,100261.58
2023-05-20T18:51:52.404Z,100261.11
2023-05-20T18:54:18.874Z,100264.80
2023-05-20T18:56:47.747Z,100262.41
2023-05-20T18:59:14.289Z,100261.42
2023-05-20T19:01:40.993Z,100263.55
2023-05-20T19:04:07.502Z,100262.89
2023-05-20T19:06:36.750Z,100265.89
2023-05-20T19:09:03.838Z,100266.48
2023-05-20T19:11:30.839Z,100265.14
2023-05-20T19:13:58.043Z,100266.73
2023-05-20T19:16:25.571Z,100270.27
2023-05-20T19:18:52.436Z,100269.45
2023-05-20T19:21:22.058Z,100270.88
2023-05-20T19:23:49.501Z,100266.77
2023-05-20T19:26:16.925Z,100270.81
2023-05-20T19:28:43.521Z,100274.48
2023-05-20T19:31:10.321Z,100272.77
2023-05-20T19:33:39.384Z,100274.37
2023-05-20T19:36:05.944Z,100285.52
2023-05-20T19:38:32.540Z,100283.31
2023-05-20T19:41:02.139Z,100285.95
2023-05-20T19:43:29.939Z,100282.70
2023-05-20T19:45:56.712Z,100282.23
2023-05-20T19:48:23.561Z,100279.11
2023-05-20T19:50:50.132Z,100273.23
2023-05-20T19:53:20.491Z,100276.05
2023-05-20T19:55:47.162Z,100272.45
2023-05-20T19:58:14.229Z,100276.14
2023-05-20T20:00:40.812Z,100277.91
2023-05-20T20:03:07.466Z,100277.25
2023-05-20T20:05:34.616Z,100276.75
2023-05-20T20:08:01.629Z,100281.80
2023-05-20T20:10:30.437Z,100280.81
2023-05-20T20:12:56.909Z,100278.92
2023-05-20T20:15:24.455Z,100280.52
2023-05-20T20:17:51.568Z,100280.05
2023-05-20T20:20:18.742Z,100283.38
2023-05-20T20:22:45.771Z,100281.67
2023-05-20T20:25:15.415Z,100277.52
2023-05-20T20:27:45.721Z,100282.42
2023-05-20T20:30:13.044Z,100275.86
2023-05-20T20:32:40.318Z,100270.86
2023-05-20T20:35:07.483Z,100268.64
2023-05-20T20:37:35.374Z,100270.92
2023-05-20T20:40:12.286Z,100266.63
2023-05-20T20:42:44.477Z,100270.30
2023-05-20T20:45:14.582Z,100275.01
2023-05-20T20:47:43.191Z,100274.17
2023-05-20T20:50:10.908Z,100276.62
2023-05-20T20:52:38.540Z,100274.58
2023-05-20T20:55:11.938Z,100269.92
2023-05-20T20:57:38.643Z,100270.09
2023-05-20T21:00:25.968Z,100277.58
2023-05-20T21:02:52.603Z,100280.37
2023-05-20T21:05:20.967Z,100279.89
2023-05-20T21:07:49.475Z,100278.87
2023-05-20T21:10:17.118Z,100274.89
2023-05-20T21:12:43.640Z,100272.48
2023-05-20T21:15:11.941Z,100275.13
2023-05-20T21:17:38.605Z,100277.20
2023-05-20T21:20:06.272Z,100274.27
2023-05-20T21:22:33.208Z,100276.35
2023-05-20T21:24:59.763Z,100270.65
2023-05-20T21:27:26.299Z,100273.63
2023-05-20T21:29:53.260Z,100276.73
2023-05-20T21:32:19.756Z,100275.71
2023-05-20T21:34:46.286Z,100277.80
2023-05-20T21:37:12.767Z,100281.80
2023-05-20T21:39:39.238Z,100283.55
2023-05-20T21:42:06.753Z,100281.99
2023-05-20T21:44:33.291Z,100288.94
2023-05-20T21:46:59.950Z,100285.31
2023-05-20T21:49:26.585Z,100287.40
2023-05-20T21:51:53.340Z,100281.52
2023-05-20T21:54:19.868Z,100286.02
2023-05-20T21:56:46.364Z,100282.93
2023-05-20T21:59:13.970Z,100284.15
2023-05-20T22:01:40.666Z,100286.75
2023-05-20T22:04:07.375Z,100286.26
2023-05-20T22:06:35.511Z,100288.85
2023-05-20T22:09:02.755Z,100287.29
2023-05-20T22:11:29.609Z,100286.58
2023-05-20T22:13:56.617Z,100281.21
2023-05-20T22:16:24.063Z,100286.93
2023-05-20T22:18:53.171Z,100288.14
2023-05-20T22:21:20.967Z,100286.59
2023-05-20T22:23:47.665Z,100292.30
2023-05-20T22:26:14.182Z,100295.41
2023-05-20T22:28:40.736Z,100295.58
2023-05-20T22:31:07.844Z,100295.05
2023-05-20T22:33:36.352Z,100284.67
2023-05-20T22:36:02.979Z,100285.17
2023-05-20T22:38:30.175Z,100281.20
2023-05-20T22:40:56.721Z,100278.07
2023-05-20T22:43:23.972Z,100278.57
2023-05-20T22:45:50.757Z,100271.82
2023-05-20T22:48:18.668Z,100270.59
2023-05-20T22:50:45.757Z,100273.35
2023-05-20T22:53:12.326Z,100278.70
2023-05-20T22:55:38.938Z,100274.36
2023-05-20T22:58:07.289Z,100277.45
2023-05-20T23:00:34.577Z,100275.39
2023-05-20T23:03:01.127Z,100276.39
2023-05-20T23:05:29.388Z,100275.69
2023-05-20T23:07:57.501Z,100270.67
2023-05-20T23:10:25.098Z,100269.95
2023-05-20T23:12:51.852Z,100269.56
2023-05-20T23:15:18.609Z,100266.79
2023-05-20T23:17:45.509Z,100262.10
2023-05-20T23:20:13.576Z,100257.41
2023-05-20T23:22:40.766Z,100258.09
2023-05-20T23:25:07.816Z,100258.58
2023-05-20T23:27:35.640Z,100260.62
2023-05-20T23:30:03.095Z,100268.20
2023-05-20T23:32:30.697Z,100267.14
2023-05-20T23:34:57.387Z,100263.33
2023-05-20T23:37:23.999Z,100260.86
2023-05-20T23:39:50.461Z,100258.09
2023-05-20T23:42:16.955Z,100254.09
2023-05-20T23:44:43.463Z,100254.08
2023-05-20T23:47:12.719Z,100255.77
2023-05-20T23:49:40.867Z,100258.67
2023-05-20T23:52:07.417Z,100257.98
2023-05-20T23:54:34.366Z,100254.15
2023-05-20T23:57:00.875Z,100253.09
2023-05-20T23:59:27.546Z,100254.11
